Time;durP1;ratioP1;P1;durP2;ratioP2;P2;SDS_P1;SDS_P2;PMS_P1;PMS_P2;Temp;Humidity;BMP_temperature;BMP_pressure;BME280_temperature;BME280_humidity;BME280_pressure;Samples;Min_cycle;Max_cycle;Signal;HPM_P1;HPM_P2
2021/07/04 00:01:12;;;;;;;8.25;7.42;;;;;;;18.99;100.00;100513.66;1671569;84;21611;-80
2021/07/04 00:03:39;;;;;;;7.72;7.03;;;;;;;18.98;100.00;100511.20;1699856;84;21073;-87
2021/07/04 00:06:05;;;;;;;9.83;6.97;;;;;;;18.97;100.00;100508.23;1700066;84;20915;-85
2021/07/04 00:08:32;;;;;;;8.28;6.87;;;;;;;18.93;100.00;100506.41;1699782;84;21049;-79
2021/07/04 00:11:04;;;;;;;7.30;6.65;;;;;;;18.92;100.00;100506.06;1699435;83;21108;-83
2021/07/04 00:13:32;;;;;;;13.05;7.45;;;;;;;18.92;100.00;100510.53;1699876;84;21505;-91
2021/07/04 00:15:59;;;;;;;16.52;10.38;;;;;;;18.89;100.00;100507.70;1699706;84;21003;-88
2021/07/04 00:18:28;;;;;;;19.95;11.03;;;;;;;18.86;100.00;100507.19;1699833;84;20935;-81
2021/07/04 00:20:55;;;;;;;12.95;9.05;;;;;;;18.84;100.00;100515.73;1674164;84;20963;-79
2021/07/04 00:23:22;;;;;;;15.70;9.45;;;;;;;18.80;100.00;100515.70;1699810;84;21794;-80
2021/07/04 00:25:51;;;;;;;14.83;8.60;;;;;;;18.77;100.00;100511.59;1699693;84;20943;-88
2021/07/04 00:28:18;;;;;;;15.30;8.93;;;;;;;18.75;100.00;100515.37;1699757;84;21070;-82
2021/07/04 00:30:45;;;;;;;14.95;9.55;;;;;;;18.71;100.00;100512.71;1699820;84;21089;-85
2021/07/04 00:33:12;;;;;;;15.25;9.08;;;;;;;18.68;100.00;100513.85;1699884;84;20927;-84
2021/07/04 00:35:39;;;;;;;11.48;8.10;;;;;;;18.66;100.00;100516.31;1699571;84;21502;-82
2021/07/04 00:38:06;;;;;;;12.40;7.45;;;;;;;18.64;100.00;100525.66;1699760;84;20998;-85
2021/07/04 00:40:33;;;;;;;11.45;8.85;;;;;;;18.59;100.00;100524.00;1700820;84;20860;-83
2021/07/04 00:43:01;;;;;;;14.73;8.63;;;;;;;18.56;100.00;100525.63;1700182;84;20971;-81
2021/07/04 00:45:28;;;;;;;13.38;9.23;;;;;;;18.55;100.00;100522.65;1699648;84;20997;-83
2021/07/04 00:47:55;;;;;;;16.10;8.83;;;;;;;18.53;100.00;100520.67;1699695;84;21122;-87
2021/07/04 00:50:25;;;;;;;16.07;8.15;;;;;;;18.53;100.00;100515.91;1674199;84;20979;-81
2021/07/04 00:52:54;;;;;;;14.63;8.13;;;;;;;18.53;100.00;100521.16;1699869;84;20923;-80
2021/07/04 00:55:22;;;;;;;9.48;6.97;;;;;;;18.53;100.00;100520.67;1699741;84;21028;-80
2021/07/04 00:57:51;;;;;;;7.67;6.80;;;;;;;18.53;100.00;100525.94;1699845;84;21142;-80
2021/07/04 01:00:21;;;;;;;9.18;6.62;;;;;;;18.51;100.00;100525.77;1699697;84;22459;-82
2021/07/04 01:02:48;;;;;;;8.78;6.70;;;;;;;18.45;100.00;100528.46;1697253;84;21003;-88
2021/07/04 01:05:20;;;;;;;9.30;6.85;;;;;;;18.40;100.00;100530.27;1697317;84;21159;-80
2021/07/04 01:07:47;;;;;;;10.30;6.63;;;;;;;18.31;100.00;100532.50;1698971;84;21030;-87
2021/07/04 01:10:19;;;;;;;7.95;6.42;;;;;;;18.24;100.00;100528.83;1699681;84;21460;-83
2021/07/04 01:12:49;;;;;;;8.15;6.30;;;;;;;18.16;100.00;100531.87;1699596;83;21139;-82
2021/07/04 01:15:20;;;;;;;7.78;6.53;;;;;;;18.07;100.00;100531.47;1699778;84;20983;-87
2021/07/04 01:17:49;;;;;;;7.92;6.65;;;;;;;18.04;100.00;100533.92;1699755;84;21544;-86
2021/07/04 01:20:18;;;;;;;8.88;6.85;;;;;;;18.04;100.00;100535.72;1699670;84;21699;-86
2021/07/04 01:23:09;;;;;;;9.35;6.80;;;;;;;18.03;100.00;100536.20;1699983;84;21045;-92
2021/07/04 01:25:49;;;;;;;7.42;6.70;;;;;;;18.02;100.00;100541.63;1699911;84;20896;-76
2021/07/04 01:28:17;;;;;;;7.62;6.10;;;;;;;18.00;100.00;100539.13;1700141;84;21018;-82
2021/07/04 01:30:50;;;;;;;9.65;6.78;;;;;;;17.96;100.00;100537.30;1700171;84;21018;-85
2021/07/04 01:33:17;;;;;;;7.37;6.20;;;;;;;17.94;100.00;100539.74;1699897;84;20970;-85
2021/07/04 01:35:45;;;;;;;7.12;6.42;;;;;;;17.91;100.00;100543.50;1697725;84;20948;-84
2021/07/04 01:38:11;;;;;;;9.53;6.12;;;;;;;17.88;100.00;100540.34;1700275;84;21121;-88
2021/07/04 01:40:39;;;;;;;8.30;6.37;;;;;;;17.84;100.00;100535.88;1700212;84;20983;-82
2021/07/04 01:43:08;;;;;;;8.63;6.22;;;;;;;17.83;100.00;100537.36;1700475;84;21575;-81
2021/07/04 01:45:38;;;;;;;7.80;5.40;;;;;;;17.84;100.00;100545.55;1700061;84;20951;-88
2021/07/04 01:48:06;;;;;;;7.25;5.95;;;;;;;17.81;100.00;100545.86;1700575;84;20915;-84
2021/07/04 01:50:40;;;;;;;6.12;5.53;;;;;;;17.77;100.00;100544.53;1700373;84;21478;-83
2021/07/04 01:53:06;;;;;;;7.58;5.85;;;;;;;17.73;100.00;100533.98;1700481;84;21029;-88
2021/07/04 01:55:35;;;;;;;7.08;5.40;;;;;;;17.71;100.00;100537.26;1700158;84;20979;-93
2021/07/04 01:58:03;;;;;;;8.58;5.78;;;;;;;17.70;100.00;100539.53;1700275;84;21407;-82
2021/07/04 02:00:33;;;;;;;9.40;6.50;;;;;;;17.70;100.00;100529.04;1700549;84;20963;-83
2021/07/04 02:03:09;;;;;;;9.58;6.65;;;;;;;17.71;100.00;100534.12;1699992;83;22078;-88
2021/07/04 02:05:37;;;;;;;8.63;6.65;;;;;;;17.74;100.00;100536.45;1699642;83;21030;-80
2021/07/04 02:08:06;;;;;;;7.75;6.03;;;;;;;17.77;100.00;100537.45;1697447;84;21030;-85
2021/07/04 02:10:37;;;;;;;7.60;5.97;;;;;;;17.78;100.00;100531.72;1699691;84;21070;-80
2021/07/04 02:13:08;;;;;;;9.88;5.62;;;;;;;17.80;100.00;100544.23;1699914;84;20966;-85
2021/07/04 02:15:38;;;;;;;9.55;6.03;;;;;;;17.79;100.00;100534.21;1699842;84;21127;-82
2021/07/04 02:18:13;;;;;;;8.83;5.72;;;;;;;17.80;100.00;100541.61;1690252;84;21085;-79
2021/07/04 02:20:57;;;;;;;10.10;6.45;;;;;;;17.80;100.00;100541.61;1699902;84;21058;-84
2021/07/04 02:23:32;;;;;;;12.98;6.10;;;;;;;17.79;100.00;100529.45;1662182;84;20972;-84
2021/07/04 02:26:18;;;;;;;7.35;4.83;;;;;;;17.79;100.00;100543.88;1699816;84;21061;-84
2021/07/04 02:28:46;;;;;;;8.53;5.25;;;;;;;17.78;100.00;100546.98;1699806;84;21124;-84
2021/07/04 02:31:23;;;;;;;7.80;5.40;;;;;;;17.75;100.00;100547.77;1698503;83;21035;-80
2021/07/04 02:33:52;;;;;;;5.37;4.75;;;;;;;17.72;100.00;100547.59;1699918;84;20939;-83
2021/07/04 02:36:21;;;;;;;7.50;5.08;;;;;;;17.70;100.00;100543.47;1699745;84;21549;-84
2021/07/04 02:38:50;;;;;;;6.53;5.33;;;;;;;17.71;100.00;100545.13;1699812;84;20927;-84
2021/07/04 02:41:17;;;;;;;7.20;4.97;;;;;;;17.69;100.00;100553.14;1697461;84;21124;-86
2021/07/04 02:43:45;;;;;;;8.80;5.25;;;;;;;17.66;100.00;100554.75;1700036;84;21522;-87
2021/07/04 02:46:15;;;;;;;5.95;5.37;;;;;;;17.63;100.00;100549.80;1699910;84;20919;-82
2021/07/04 02:48:44;;;;;;;5.95;4.90;;;;;;;17.62;100.00;100543.38;1699951;84;21525;-87
2021/07/04 02:51:14;;;;;;;5.78;4.78;;;;;;;17.61;100.00;100539.13;1699907;84;21078;-91
2021/07/04 02:53:41;;;;;;;7.15;4.83;;;;;;;17.62;100.00;100552.56;1699749;84;21916;-93
2021/07/04 02:56:10;;;;;;;5.83;5.20;;;;;;;17.60;100.00;100550.10;1699813;84;21019;-84
2021/07/04 02:58:38;;;;;;;7.30;6.03;;;;;;;17.62;100.00;100549.45;1699792;84;21555;-93
2021/07/04 03:01:04;;;;;;;8.08;4.60;;;;;;;17.62;100.00;100546.83;1699871;84;20920;-84
2021/07/04 03:03:32;;;;;;;5.62;5.00;;;;;;;17.67;100.00;100549.85;1699706;84;20915;-87
2021/07/04 03:05:59;;;;;;;7.28;5.05;;;;;;;17.70;100.00;100552.17;1699985;84;21765;-83
2021/07/04 03:08:27;;;;;;;10.32;6.40;;;;;;;17.73;100.00;100548.42;1700088;84;21640;-86
2021/07/04 03:10:56;;;;;;;10.43;6.40;;;;;;;17.74;100.00;100541.70;1700152;84;20960;-87
2021/07/04 03:13:24;;;;;;;12.93;7.00;;;;;;;17.77;100.00;100541.39;1700135;84;21581;-90
2021/07/04 03:15:52;;;;;;;6.97;5.60;;;;;;;17.80;100.00;100541.61;1697486;84;21627;-91
2021/07/04 03:18:20;;;;;;;7.75;5.33;;;;;;;17.82;100.00;100533.91;1699789;84;21185;-87
2021/07/04 03:20:47;;;;;;;5.65;5.05;;;;;;;17.87;100.00;100536.89;1699928;84;20990;-88
2021/07/04 03:23:14;;;;;;;7.58;5.45;;;;;;;17.92;100.00;100535.14;1699841;84;20959;-86
2021/07/04 03:25:41;;;;;;;8.43;5.90;;;;;;;17.95;100.00;100535.67;1699911;84;21593;-85
2021/07/04 03:28:10;;;;;;;9.68;6.70;;;;;;;17.99;100.00;100540.13;1700002;84;21023;-81
2021/07/04 03:30:37;;;;;;;6.20;5.28;;;;;;;18.03;100.00;100537.52;1699714;84;21160;-90
2021/07/04 03:33:04;;;;;;;13.22;5.92;;;;;;;18.06;100.00;100537.73;1699909;84;20888;-84
2021/07/04 03:35:34;;;;;;;5.55;4.87;;;;;;;18.06;100.00;100541.15;1699911;84;20920;-85
2021/07/04 03:38:03;;;;;;;7.83;5.12;;;;;;;18.07;100.00;100546.75;1699960;84;20920;-84
2021/07/04 03:40:29;;;;;;;5.83;5.30;;;;;;;18.09;100.00;100540.05;1699844;84;21541;-89
2021/07/04 03:42:58;;;;;;;5.72;5.12;;;;;;;18.12;100.00;100536.63;1699577;84;21117;-89
2021/07/04 03:45:27;;;;;;;7.67;5.45;;;;;;;18.18;100.00;100529.94;1699638;83;21115;-82
2021/07/04 03:47:54;;;;;;;6.00;5.22;;;;;;;18.24;100.00;100529.31;1700020;84;20999;-81
2021/07/04 03:50:22;;;;;;;7.87;5.20;;;;;;;18.31;100.00;100531.19;1699707;83;21557;-86
2021/07/04 03:52:54;;;;;;;7.00;5.40;;;;;;;18.38;100.00;100524.80;1700045;84;21034;-90
2021/07/04 03:55:20;;;;;;;6.03;5.45;;;;;;;18.46;100.00;100529.64;1673972;84;21863;-87
2021/07/04 03:57:47;;;;;;;9.40;5.25;;;;;;;18.53;100.00;100524.63;1699869;84;21098;-88
2021/07/04 04:00:17;;;;;;;5.75;4.75;;;;;;;18.61;100.00;100522.51;1698660;84;20946;-86
2021/07/04 04:02:45;;;;;;;6.08;5.00;;;;;;;18.69;100.00;100517.31;1700182;84;20975;-86
2021/07/04 04:05:13;;;;;;;6.85;5.17;;;;;;;18.76;100.00;100519.66;1699793;84;21015;-85
2021/07/04 04:07:44;;;;;;;5.35;4.35;;;;;;;18.83;100.00;100517.53;1699622;84;21003;-85
2021/07/04 04:10:13;;;;;;;6.78;4.55;;;;;;;18.92;100.00;100509.21;1699795;84;20951;-86
2021/07/04 04:12:42;;;;;;;6.58;4.35;;;;;;;18.99;100.00;100516.28;1677682;84;21075;-87
2021/07/04 04:15:09;;;;;;;5.00;4.47;;;;;;;19.06;100.00;100517.80;1673750;85;21011;-91
2021/07/04 04:17:37;;;;;;;5.62;4.70;;;;;;;19.14;100.00;100517.84;1663910;85;21062;-84
2021/07/04 04:20:06;;;;;;;7.30;4.25;;;;;;;19.24;100.00;100516.39;1653554;85;21224;-89
2021/07/04 04:22:36;;;;;;;4.10;3.60;;;;;;;19.30;100.00;100517.89;1668255;86;21078;-87
2021/07/04 04:25:04;;;;;;;5.28;4.00;;;;;;;19.38;100.00;100521.02;1672719;85;20956;-91
2021/07/04 04:27:32;;;;;;;7.40;4.30;;;;;;;19.45;99.01;100526.00;1668278;86;21528;-81
2021/07/04 04:29:59;;;;;;;4.40;3.90;;;;;;;19.50;98.13;100531.10;1672661;85;21015;-77
2021/07/04 04:32:27;;;;;;;4.15;3.75;;;;;;;19.54;96.91;100531.12;1668270;86;21136;-82
2021/07/04 04:34:54;;;;;;;7.83;3.80;;;;;;;19.59;96.33;100536.39;1672238;85;20956;-86
2021/07/04 04:37:21;;;;;;;5.28;3.87;;;;;;;19.61;96.54;100536.56;1668256;86;20971;-83
2021/07/04 04:39:48;;;;;;;5.50;4.35;;;;;;;19.64;95.43;100532.77;1672281;85;21102;-87
2021/07/04 04:42:15;;;;;;;4.95;4.55;;;;;;;19.62;95.40;100526.38;1668207;86;20927;-86
2021/07/04 04:44:41;;;;;;;6.50;4.85;;;;;;;19.62;95.74;100530.32;1672171;85;21147;-84
2021/07/04 04:47:10;;;;;;;6.20;4.28;;;;;;;19.65;95.90;100530.48;1668163;86;21538;-86
2021/07/04 04:49:38;;;;;;;7.95;4.80;;;;;;;19.67;94.94;100526.69;1672363;85;21134;-85
2021/07/04 04:52:06;;;;;;;6.28;3.92;;;;;;;19.71;94.32;100528.52;1668236;86;20987;-80
2021/07/04 04:54:34;;;;;;;4.03;3.62;;;;;;;19.77;94.19;100531.31;1665197;85;21070;-85
2021/07/04 04:57:06;;;;;;;4.10;3.70;;;;;;;19.84;93.46;100530.17;1668100;86;21147;-85
2021/07/04 04:59:35;;;;;;;5.37;3.85;;;;;;;19.91;92.34;100533.80;1672292;85;21019;-83
2021/07/04 05:02:03;;;;;;;4.62;4.05;;;;;;;20.00;92.48;100536.77;1668213;86;21035;-82
2021/07/04 05:04:30;;;;;;;5.15;3.92;;;;;;;20.07;92.95;100542.50;1672216;85;21581;-85
2021/07/04 05:06:57;;;;;;;4.87;3.98;;;;;;;20.16;91.30;100542.03;1668172;86;21042;-81
2021/07/04 05:09:25;;;;;;;5.58;3.67;;;;;;;20.25;90.80;100547.62;1653208;85;21112;-83
2021/07/04 05:11:52;;;;;;;4.00;3.62;;;;;;;20.36;90.07;100539.88;1667976;84;21087;-88
2021/07/04 05:14:19;;;;;;;6.22;3.83;;;;;;;20.43;89.31;100535.09;1672398;85;20959;-81
2021/07/04 05:16:47;;;;;;;5.53;4.17;;;;;;;20.52;88.54;100534.58;1668416;86;21066;-86
2021/07/04 05:19:17;;;;;;;4.22;3.83;;;;;;;20.55;87.43;100537.70;1658875;85;21443;-85
2021/07/04 05:21:46;;;;;;;3.52;3.22;;;;;;;20.62;88.27;100529.11;1660843;84;21013;-86
2021/07/04 05:24:12;;;;;;;3.52;3.22;;;;;;;20.71;87.60;100529.45;1640625;86;20949;-86
2021/07/04 05:26:40;;;;;;;3.85;3.47;;;;;;;20.78;85.91;100532.53;1646824;86;21020;-88
2021/07/04 05:29:07;;;;;;;3.92;3.25;;;;;;;20.82;85.37;100528.57;1647440;87;21921;-88
2021/07/04 05:31:35;;;;;;;11.10;5.20;;;;;;;20.87;85.56;100530.19;1649088;86;20956;-82
2021/07/04 05:34:02;;;;;;;3.87;3.55;;;;;;;20.93;85.54;100520.27;1645863;87;21137;-84
2021/07/04 05:36:29;;;;;;;4.65;3.05;;;;;;;20.99;84.76;100524.89;1647439;86;21499;-83
2021/07/04 05:38:57;;;;;;;4.85;3.10;;;;;;;21.08;85.08;100525.66;1646326;87;20968;-86
2021/07/04 05:41:24;;;;;;;3.60;3.30;;;;;;;21.15;84.74;100525.34;1648450;86;20944;-84
2021/07/04 05:43:50;;;;;;;4.03;3.30;;;;;;;21.24;84.93;100520.83;1644512;86;21036;-89
2021/07/04 05:46:17;;;;;;;4.72;2.95;;;;;;;21.34;84.44;100521.44;1646407;86;21075;-81
2021/07/04 05:48:46;;;;;;;4.87;3.10;;;;;;;21.42;83.33;100522.20;1644480;87;21082;-84
2021/07/04 05:51:13;;;;;;;4.28;3.27;;;;;;;21.47;82.90;100523.84;1646826;86;20980;-82
2021/07/04 05:53:40;;;;;;;4.75;3.17;;;;;;;21.53;81.15;100525.78;1643675;87;21648;-82
2021/07/04 05:56:06;;;;;;;7.20;3.25;;;;;;;21.56;80.49;100515.36;1647003;86;21033;-82
2021/07/04 05:58:35;;;;;;;5.55;3.15;;;;;;;21.60;81.47;100525.37;1645561;87;21929;-84
2021/07/04 06:01:02;;;;;;;3.47;2.95;;;;;;;21.64;77.58;100520.57;1646293;86;20992;-87
2021/07/04 06:03:29;;;;;;;6.10;3.62;;;;;;;21.63;78.43;100517.10;1644931;87;21048;-83
2021/07/04 06:05:55;;;;;;;3.92;2.83;;;;;;;21.63;77.49;100522.91;1646780;86;20977;-82
2021/07/04 06:08:22;;;;;;;5.40;3.05;;;;;;;21.61;76.25;100520.43;1644441;86;21087;-84
2021/07/04 06:10:51;;;;;;;3.92;3.25;;;;;;;21.61;77.47;100520.43;1646475;86;21774;-85
2021/07/04 06:13:18;;;;;;;4.03;2.58;;;;;;;21.68;77.73;100520.55;1632126;86;21918;-86
2021/07/04 06:15:46;;;;;;;3.55;2.80;;;;;;;21.77;78.53;100531.38;1650964;86;21096;-88
2021/07/04 06:18:12;;;;;;;4.05;2.87;;;;;;;21.86;77.05;100540.05;1628938;86;20981;-81
2021/07/04 06:20:39;;;;;;;3.60;2.52;;;;;;;21.91;75.71;100535.11;1646541;86;21558;-85
2021/07/04 06:23:05;;;;;;;4.08;1.87;;;;;;;21.92;75.66;100523.02;1618887;88;21134;-90
2021/07/04 06:25:34;;;;;;;4.87;2.45;;;;;;;21.99;74.81;100528.42;1646474;87;21725;-85
2021/07/04 06:28:00;;;;;;;3.83;2.27;;;;;;;22.06;75.57;100533.33;1641058;87;21343;-88
2021/07/04 06:30:27;;;;;;;3.27;2.17;;;;;;;22.11;75.39;100538.39;1663560;85;21090;-83
2021/07/04 06:32:54;;;;;;;4.97;2.42;;;;;;;22.17;75.65;100540.84;1667525;86;21074;-83
2021/07/04 06:35:20;;;;;;;5.15;1.95;;;;;;;22.25;75.40;100543.89;1663669;86;21157;-81
2021/07/04 06:37:48;;;;;;;3.12;1.70;;;;;;;22.32;74.46;100539.53;1667059;86;21502;-87
2021/07/04 06:40:17;;;;;;;2.20;1.85;;;;;;;22.38;73.27;100533.52;1647040;87;21601;-85
2021/07/04 06:42:44;;;;;;;2.33;2.10;;;;;;;22.43;72.10;100535.94;1623293;88;21020;-88
2021/07/04 06:45:11;;;;;;;2.70;2.25;;;;;;;22.46;70.75;100538.75;1647017;87;21530;-84
2021/07/04 06:47:41;;;;;;;3.77;3.25;;;;;;;22.48;71.83;100537.56;1629181;88;21154;-83
2021/07/04 06:50:11;;;;;;;5.03;3.70;;;;;;;22.55;72.15;100537.66;1646424;87;21653;-84
2021/07/04 06:52:41;;;;;;;3.98;3.08;;;;;;;22.62;71.12;100542.02;1636480;86;21031;-84
2021/07/04 06:55:13;;;;;;;5.77;2.50;;;;;;;22.69;72.21;100543.47;1635786;86;20951;-85
2021/07/04 06:57:40;;;;;;;3.65;2.08;;;;;;;22.75;69.58;100551.20;1649855;86;21105;-82
2021/07/04 07:00:10;;;;;;;7.20;1.95;;;;;;;22.73;68.55;100554.02;1647373;86;21106;-83
2021/07/04 07:02:37;;;;;;;2.30;2.08;;;;;;;22.70;68.30;100562.31;1635674;87;20967;-88
2021/07/04 07:05:07;;;;;;;4.05;2.40;;;;;;;22.69;68.52;100550.08;1662297;86;21038;-84
2021/07/04 07:07:34;;;;;;;3.55;2.50;;;;;;;22.71;69.67;100552.56;1629172;86;20897;-88
2021/07/04 07:10:08;;;;;;;5.35;2.50;;;;;;;22.71;69.49;100549.92;1646615;86;20953;-84
2021/07/04 07:12:38;;;;;;;3.95;2.40;;;;;;;22.72;70.73;100543.11;1621264;86;20953;-87
2021/07/04 07:15:08;;;;;;;3.87;3.00;;;;;;;22.80;71.90;100530.30;1653360;86;20968;-82
2021/07/04 07:17:34;;;;;;;4.15;2.83;;;;;;;22.91;71.60;100527.20;1621045;86;20925;-82
2021/07/04 07:20:08;;;;;;;2.50;2.30;;;;;;;23.03;68.04;100516.45;1652980;86;21613;-89
2021/07/04 07:22:36;;;;;;;3.55;2.67;;;;;;;22.98;67.79;100508.23;1651042;86;21478;-86
2021/07/04 07:25:05;;;;;;;5.53;2.90;;;;;;;23.01;68.00;100507.86;1651848;86;21059;-85
2021/07/04 07:27:31;;;;;;;6.35;2.77;;;;;;;23.03;68.78;100506.70;1645562;86;21028;-86
2021/07/04 07:30:00;;;;;;;3.15;2.85;;;;;;;23.07;70.24;100519.06;1647020;86;20968;-81
2021/07/04 07:32:27;;;;;;;3.25;2.40;;;;;;;23.09;69.44;100509.92;1643443;87;21090;-81
2021/07/04 07:34:54;;;;;;;5.78;2.83;;;;;;;23.08;70.18;100511.42;1646759;86;21039;-90
2021/07/04 07:37:22;;;;;;;2.77;2.58;;;;;;;23.03;69.04;100509.84;1642855;86;21194;-82
2021/07/04 07:39:51;;;;;;;7.67;6.20;;;;;;;23.05;69.19;100525.02;1646432;86;20972;-85
2021/07/04 07:42:17;;;;;;;2.95;2.62;;;;;;;23.07;70.83;100534.94;1653345;86;20991;-83
2021/07/04 07:44:44;;;;;;;3.10;2.90;;;;;;;23.14;68.09;100523.41;1655990;85;20984;-86
2021/07/04 07:47:11;;;;;;;3.08;2.80;;;;;;;23.19;68.91;100522.86;1651089;85;21003;-85
2021/07/04 07:49:39;;;;;;;12.95;8.53;;;;;;;23.23;66.11;100518.02;1646277;86;21670;-85
2021/07/04 07:52:06;;;;;;;4.80;3.45;;;;;;;23.25;67.47;100518.14;1651015;86;20967;-83
2021/07/04 07:54:35;;;;;;;5.35;2.95;;;;;;;23.32;66.43;100518.22;1656023;85;21610;-88
2021/07/04 07:57:05;;;;;;;4.33;2.92;;;;;;;23.40;66.70;100523.42;1650998;85;21020;-87
2021/07/04 07:59:33;;;;;;;9.58;6.47;;;;;;;23.50;66.99;100512.02;1654551;85;21121;-85
2021/07/04 08:02:00;;;;;;;5.70;3.67;;;;;;;23.64;66.89;100508.51;1642053;86;21255;-83
2021/07/04 08:04:27;;;;;;;10.80;2.87;;;;;;;23.72;66.21;100513.66;1646565;86;20961;-88
2021/07/04 08:06:56;;;;;;;13.85;11.35;;;;;;;23.74;66.43;100511.63;1638371;86;21630;-81
2021/07/04 08:09:26;;;;;;;9.18;7.03;;;;;;;23.79;65.72;100506.60;1656192;85;20996;-84
2021/07/04 08:11:54;;;;;;;7.40;5.37;;;;;;;23.86;66.68;100501.36;1656258;85;21054;-87
2021/07/04 08:14:22;;;;;;;3.50;2.80;;;;;;;23.92;67.47;100508.55;1647272;84;22015;-85
2021/07/04 08:16:52;;;;;;;3.30;3.00;;;;;;;23.92;65.01;100512.02;1646512;86;21028;-85
2021/07/04 08:19:18;;;;;;;5.45;2.85;;;;;;;23.84;65.55;100499.39;1646342;86;21044;-82
2021/07/04 08:21:45;;;;;;;3.02;2.72;;;;;;;23.82;65.17;100504.89;1646511;86;21032;-84
2021/07/04 08:24:13;;;;;;;9.68;7.25;;;;;;;23.86;66.51;100504.02;1646552;86;37074;-86
2021/07/04 08:26:41;;;;;;;3.70;3.15;;;;;;;23.99;67.52;100506.78;1646429;86;21139;-92
2021/07/04 08:29:08;;;;;;;4.55;3.00;;;;;;;24.15;64.65;100502.02;1646178;86;21103;-88
2021/07/04 08:31:35;;;;;;;6.37;3.20;;;;;;;24.29;64.87;100503.44;1646306;86;20945;-84
2021/07/04 08:34:01;;;;;;;4.28;2.90;;;;;;;24.36;64.73;100510.44;1646219;86;20976;-85
2021/07/04 08:36:30;;;;;;;3.58;2.70;;;;;;;24.31;64.58;100522.66;1646248;86;21039;-82
2021/07/04 08:38:56;;;;;;;3.72;2.95;;;;;;;24.17;62.91;100505.31;1646200;86;21144;-88
2021/07/04 08:41:23;;;;;;;7.65;2.67;;;;;;;24.08;64.31;100507.77;1646348;86;21534;-78
2021/07/04 08:43:52;;;;;;;4.47;2.92;;;;;;;24.06;64.12;100512.42;1646630;86;21106;-88
2021/07/04 08:46:20;;;;;;;3.83;2.80;;;;;;;24.00;64.34;100516.34;1646018;86;21562;-83
2021/07/04 08:48:49;;;;;;;6.28;5.37;;;;;;;23.90;64.76;100507.40;1646361;86;21009;-88
2021/07/04 08:51:16;;;;;;;4.42;2.92;;;;;;;23.84;64.34;100510.81;1646547;86;21113;-81
2021/07/04 08:53:42;;;;;;;4.90;2.67;;;;;;;23.78;64.79;100510.75;1625691;86;21071;-87
2021/07/04 08:56:10;;;;;;;5.60;2.47;;;;;;;23.77;64.89;100512.61;1646256;86;21566;-84
2021/07/04 08:58:36;;;;;;;5.80;2.40;;;;;;;23.83;63.84;100511.84;1646323;86;20952;-85
2021/07/04 09:01:18;;;;;;;4.45;2.55;;;;;;;23.98;62.78;100504.63;1646654;86;20933;-86
2021/07/04 09:03:47;;;;;;;;;;;;;;;24.17;61.16;100500.02;1648938;86;21734;-85
2021/07/04 09:06:14;;;;;;;4.45;2.65;;;;;;;24.35;61.39;100501.34;1646227;86;20114;-85
2021/07/04 09:08:41;;;;;;;3.60;2.72;;;;;;;24.49;58.65;100505.22;1646220;87;21032;-81
2021/07/04 09:11:18;;;;;;;3.58;2.00;;;;;;;24.58;59.34;100506.70;1646383;86;21551;-83
2021/07/04 09:13:47;;;;;;;6.05;2.20;;;;;;;24.65;58.22;100509.39;1646412;85;20959;-84
2021/07/04 09:16:20;;;;;;;22.48;17.82;;;;;;;24.65;57.95;100504.91;1646435;86;20925;-86
2021/07/04 09:19:09;;;;;;;65.20;47.23;;;;;;;24.74;57.66;100513.02;1646762;86;21024;-84
2021/07/04 09:21:36;;;;;;;54.00;31.77;;;;;;;24.81;57.14;100508.25;1646045;86;21032;-88
2021/07/04 09:24:11;;;;;;;11.48;8.10;;;;;;;24.95;57.35;100506.83;1646135;86;21648;-83
2021/07/04 09:26:42;;;;;;;4.70;1.80;;;;;;;25.03;57.96;100508.48;1642383;86;21566;-82
2021/07/04 09:29:10;;;;;;;5.08;2.08;;;;;;;24.96;57.66;100499.66;1645928;86;21543;-84
2021/07/04 09:31:39;;;;;;;4.97;1.85;;;;;;;24.95;58.89;100498.87;1646179;86;21100;-86
2021/07/04 09:34:09;;;;;;;5.60;1.47;;;;;;;24.93;57.42;100495.58;1646412;86;21004;-79
2021/07/04 09:36:38;;;;;;;1.72;1.47;;;;;;;24.96;57.96;100491.70;1646273;86;21076;-84
2021/07/04 09:39:20;;;;;;;7.72;5.08;;;;;;;24.99;55.56;100488.14;1646424;86;21083;-85
2021/07/04 09:42:11;;;;;;;34.98;22.60;;;;;;;24.93;56.71;100493.42;1646437;86;21439;-91
2021/07/04 09:44:41;;;;;;;5.28;2.58;;;;;;;24.97;55.92;100486.70;1663303;85;20971;-89
2021/07/04 09:47:20;;;;;;;1.75;1.50;;;;;;;25.06;55.98;100476.22;1663773;85;21015;-87
2021/07/04 09:49:47;;;;;;;1.98;1.30;;;;;;;25.09;54.88;100479.30;1650117;85;21016;-87
2021/07/04 09:52:19;;;;;;;4.90;1.60;;;;;;;25.16;53.51;100470.02;1646419;86;21029;-89
2021/07/04 09:55:02;;;;;;;4.33;1.50;;;;;;;25.23;55.29;100461.56;1646546;86;21608;-88
2021/07/04 09:57:57;;;;;;;11.55;6.37;;;;;;;25.28;53.91;100472.39;1646289;86;21003;-88
2021/07/04 10:00:28;;;;;;;4.30;1.90;;;;;;;25.31;55.15;100468.00;1629596;87;20976;-87
2021/07/04 10:03:19;;;;;;;51.80;27.13;;;;;;;25.52;55.23;100474.53;1646509;86;21610;-83
2021/07/04 10:06:00;;;;;;;8.58;3.83;;;;;;;25.86;54.85;100472.19;1657757;86;21126;-84
2021/07/04 10:08:35;;;;;;;2.20;1.85;;;;;;;26.26;52.40;100472.47;1649268;86;21170;-93
2021/07/04 10:11:11;;;;;;;1.40;1.30;;;;;;;26.41;51.58;100466.11;1646675;86;22327;-85
2021/07/04 10:13:41;;;;;;;1.77;1.62;;;;;;;26.50;51.45;100452.38;1648556;85;21605;-87
2021/07/04 10:16:15;;;;;;;19.65;11.95;;;;;;;26.63;51.71;100451.51;1656042;86;21614;-81
2021/07/04 10:18:47;;;;;;;15.20;8.90;;;;;;;26.63;52.17;100449.66;1656457;86;21023;-86
2021/07/04 10:21:14;;;;;;;9.73;6.30;;;;;;;26.70;51.91;100448.31;1656405;86;21208;-83
2021/07/04 10:23:47;;;;;;;3.67;2.02;;;;;;;26.75;51.33;100450.64;1656045;86;21071;-89
2021/07/04 10:26:16;;;;;;;2.00;1.12;;;;;;;26.74;50.62;100447.66;1656258;85;20981;-82
2021/07/04 10:28:46;;;;;;;1.50;1.20;;;;;;;26.75;49.34;100450.64;1656975;86;21549;-83
2021/07/04 10:31:19;;;;;;;2.55;1.40;;;;;;;26.83;50.60;100443.75;1640386;86;20892;-86
2021/07/04 10:33:46;;;;;;;7.53;5.62;;;;;;;26.90;51.80;100434.41;1668270;86;21131;-83
2021/07/04 10:36:21;;;;;;;2.17;1.50;;;;;;;26.87;50.65;100445.48;1668216;86;20956;-87
2021/07/04 10:38:58;;;;;;;1.92;0.70;;;;;;;26.70;50.60;100441.15;1667911;86;21038;-81
2021/07/04 10:41:33;;;;;;;2.02;1.10;;;;;;;26.67;46.60;100440.23;1667433;86;20988;-81
2021/07/04 10:44:10;;;;;;;1.35;1.10;;;;;;;26.72;47.64;100436.92;1668251;86;21548;-86
2021/07/04 10:46:51;;;;;;;2.37;1.50;;;;;;;26.78;48.35;100435.56;1667950;86;21135;-77
2021/07/04 10:49:27;;;;;;;3.85;2.77;;;;;;;26.81;48.73;100437.02;1668062;86;20920;-85
2021/07/04 10:52:03;;;;;;;2.87;1.72;;;;;;;26.80;50.83;100432.70;1667664;86;21498;-86
2021/07/04 10:54:44;;;;;;;1.27;1.12;;;;;;;26.64;51.26;100427.36;1668364;86;21513;-80
2021/07/04 10:57:33;;;;;;;1.35;1.07;;;;;;;26.57;50.69;100429.73;1638588;86;20987;-85
2021/07/04 11:00:05;;;;;;;0.80;0.80;;;;;;;26.48;48.49;100429.66;1668613;86;21120;-79
2021/07/04 11:02:59;;;;;;;1.60;1.20;;;;;;;26.51;48.84;100426.07;1668066;86;21018;-81
2021/07/04 11:05:40;;;;;;;1.20;1.07;;;;;;;26.61;49.03;100418.43;1668390;86;20987;-82
2021/07/04 11:08:11;;;;;;;7.72;2.80;;;;;;;26.54;48.54;100419.50;1668443;86;21549;-81
2021/07/04 11:11:04;;;;;;;2.00;1.27;;;;;;;26.42;51.02;100418.53;1668064;86;21575;-78
2021/07/04 11:13:42;;;;;;;3.17;1.40;;;;;;;26.53;49.68;100412.53;1668093;84;20884;-86
2021/07/04 11:16:17;;;;;;;2.92;1.85;;;;;;;26.77;50.60;100416.62;1667996;86;21595;-89
2021/07/04 11:18:58;;;;;;;6.25;1.32;;;;;;;27.06;49.98;100415.27;1668017;86;21023;-86
2021/07/04 11:21:49;;;;;;;4.35;2.47;;;;;;;27.37;49.03;100405.14;1641299;85;21473;-84
2021/07/04 11:24:21;;;;;;;2.87;1.92;;;;;;;27.62;49.54;100401.98;1668283;86;21081;-86
2021/07/04 11:27:25;;;;;;;1.90;1.30;;;;;;;27.57;49.32;100405.02;1667880;86;21026;-86
2021/07/04 11:30:28;;;;;;;2.22;1.30;;;;;;;27.17;48.67;100399.13;1668099;86;21010;-83
2021/07/04 11:33:25;;;;;;;4.15;1.82;;;;;;;26.76;50.18;100398.21;1667701;85;20979;-84
2021/07/04 11:36:20;;;;;;;1.20;1.10;;;;;;;26.78;50.80;100389.48;1668324;86;21046;-88